Time;durP1;ratioP1;P1;durP2;ratioP2;P2;SDS_P1;SDS_P2;PMS_P1;PMS_P2;Temp;Humidity;BMP_temperature;BMP_pressure;BME280_temperature;BME280_humidity;BME280_pressure;Samples;Min_cycle;Max_cycle;Signal;HPM_P1;HPM_P2
2023/01/27 00:00:25;;;;;;;96.10;56.80;;;;;;;-2.19;100.00;96693.56;109043;1273;24448;-80
2023/01/27 00:03:17;;;;;;;101.60;57.80;;;;;;;-2.25;100.00;96691.02;109064;1273;25316;-80
2023/01/27 00:05:48;;;;;;;99.80;59.50;;;;;;;-2.33;100.00;96689.17;108950;1269;30375;-81
2023/01/27 00:08:19;;;;;;;97.80;60.50;;;;;;;-2.33;100.00;96691.77;109000;1266;22524;-80
2023/01/27 00:13:25;;;;;;;98.40;58.40;;;;;;;-2.33;100.00;96688.97;109043;1266;22531;-80
2023/01/27 00:13:42;;;;;;;97.60;57.80;;;;;;;-2.36;100.00;96690.08;109010;1274;22518;-80
2023/01/27 00:16:13;;;;;;;95.40;55.90;;;;;;;-2.35;100.00;96689.23;109038;1266;22629;-80
2023/01/27 00:18:44;;;;;;;95.20;56.90;;;;;;;-2.39;100.00;96694.94;109064;1266;25497;-80
2023/01/27 00:26:53;;;;;;;91.20;51.80;;;;;;;-2.53;100.00;96694.57;108953;1273;22525;-81
2023/01/27 00:29:24;;;;;;;90.80;52.20;;;;;;;-2.56;100.00;96697.98;109019;1265;22547;-81
2023/01/27 00:34:44;;;;;;;89.90;54.00;;;;;;;-2.67;100.00;96697.64;109051;1273;25265;-81
2023/01/27 00:37:18;;;;;;;85.60;52.10;;;;;;;-2.70;100.00;96698.75;109077;1269;22617;-80
2023/01/27 00:39:49;;;;;;;91.50;54.80;;;;;;;-2.67;100.00;96696.53;109055;1266;25242;-81
2023/01/27 00:42:20;;;;;;;84.10;51.10;;;;;;;-2.62;100.00;96693.73;109015;1266;22613;-80
2023/01/27 00:47:41;;;;;;;83.00;51.20;;;;;;;-2.61;100.00;96695.40;109000;1269;22539;-81
2023/01/27 00:50:13;;;;;;;84.20;50.20;;;;;;;-2.58;100.00;96694.02;109055;1273;23852;-80
2023/01/27 00:52:46;;;;;;;84.50;51.70;;;;;;;-2.57;100.00;96693.50;108997;1266;22555;-81
2023/01/27 00:55:17;;;;;;;93.40;54.20;;;;;;;-2.59;100.00;96692.30;109071;1272;22570;-80
2023/01/27 00:57:48;;;;;;;98.40;57.80;;;;;;;-2.61;100.00;96694.73;109049;1273;22612;-80
2023/01/27 01:00:20;;;;;;;91.20;54.00;;;;;;;-2.61;100.00;96692.17;108991;1273;22520;-80
2023/01/27 01:02:51;;;;;;;95.80;55.30;;;;;;;-2.61;100.00;96691.98;109006;1269;22537;-81
2023/01/27 01:05:22;;;;;;;93.70;53.30;;;;;;;-2.60;100.00;96689.66;109022;1273;25449;-81
2023/01/27 01:07:54;;;;;;;92.60;53.70;;;;;;;-2.60;100.00;96689.66;109032;1273;22518;-80
2023/01/27 01:10:25;;;;;;;89.20;55.40;;;;;;;-2.61;100.00;96687.06;109056;1269;22548;-80
2023/01/27 01:12:55;;;;;;;94.00;56.20;;;;;;;-2.65;100.00;96689.20;109024;1273;22514;-81
2023/01/27 01:15:26;;;;;;;92.90;56.00;;;;;;;-2.67;100.00;96689.60;109007;1273;22549;-80
2023/01/27 01:17:57;;;;;;;95.50;54.70;;;;;;;-2.68;100.00;96690.22;109108;1267;22540;-80
2023/01/27 01:20:28;;;;;;;89.30;57.20;;;;;;;-2.67;100.00;96693.49;109111;1273;25417;-81
2023/01/27 01:22:59;;;;;;;105.20;59.80;;;;;;;-2.71;100.00;96693.20;109073;1273;22603;-80
2023/01/27 01:25:30;;;;;;;94.60;53.70;;;;;;;-2.73;100.00;96690.76;109077;1273;22560;-81
2023/01/27 01:28:01;;;;;;;99.20;57.80;;;;;;;-2.75;100.00;96692.78;109115;1273;23622;-81
2023/01/27 01:30:34;;;;;;;98.30;57.80;;;;;;;-2.75;100.00;96692.19;109036;1274;24314;-80
2023/01/27 01:33:05;;;;;;;98.20;58.70;;;;;;;-2.70;100.00;96691.23;109137;1273;22507;-80
2023/01/27 01:35:42;;;;;;;104.00;56.30;;;;;;;-2.66;100.00;96689.16;109057;1269;22543;-80
2023/01/27 01:38:13;;;;;;;106.10;60.20;;;;;;;-2.63;100.00;96683.06;109105;1273;22609;-80
2023/01/27 01:40:45;;;;;;;102.50;57.10;;;;;;;-2.58;100.00;96684.23;109150;1269;22541;-80
2023/01/27 01:43:21;;;;;;;100.70;57.00;;;;;;;-2.54;100.00;96679.18;109092;1273;25351;-80
2023/01/27 01:45:56;;;;;;;99.60;56.10;;;;;;;-2.51;100.00;96679.29;109095;1266;22673;-81
2023/01/27 01:48:33;;;;;;;96.90;54.20;;;;;;;-2.48;100.00;96672.27;109213;1273;25233;-81
2023/01/27 01:51:12;;;;;;;95.40;55.50;;;;;;;-2.48;100.00;96669.95;109072;1266;22546;-80
2023/01/27 01:53:48;;;;;;;99.80;56.00;;;;;;;-2.50;100.00;96668.23;109068;1274;22552;-80
2023/01/27 01:56:25;;;;;;;103.40;53.60;;;;;;;-2.48;100.00;96664.32;109090;1266;59428;-80
2023/01/27 01:59:01;;;;;;;101.90;56.00;;;;;;;-2.45;100.00;96667.11;109108;1273;24243;-80
2023/01/27 02:01:32;;;;;;;100.80;54.80;;;;;;;-2.44;100.00;96666.55;109100;1274;22525;-81
2023/01/27 02:04:09;;;;;;;94.30;53.80;;;;;;;-2.47;100.00;96665.60;109115;1273;22533;-81
2023/01/27 02:06:50;;;;;;;97.60;55.90;;;;;;;-2.52;100.00;96669.54;109128;1266;25240;-81
2023/01/27 02:09:22;;;;;;;87.70;49.70;;;;;;;-2.55;100.00;96666.27;109138;1269;22601;-81
2023/01/27 02:11:57;;;;;;;99.30;55.90;;;;;;;-2.59;100.00;96664.02;109110;1273;22521;-81
2023/01/27 02:14:29;;;;;;;97.20;53.10;;;;;;;-2.64;100.00;96661.23;109072;1273;22517;-80
2023/01/27 02:17:00;;;;;;;97.70;54.10;;;;;;;-2.69;100.00;96659.71;109138;1273;25431;-80
2023/01/27 02:19:45;;;;;;;101.90;57.30;;;;;;;-2.69;100.00;96661.19;109110;1269;22581;-80
2023/01/27 02:22:26;;;;;;;95.20;52.10;;;;;;;-2.71;100.00;96654.83;109118;1273;22540;-81
2023/01/27 02:25:06;;;;;;;90.50;50.80;;;;;;;-2.71;100.00;96658.15;109085;1272;25335;-81
2023/01/27 02:27:37;;;;;;;84.20;48.40;;;;;;;-2.74;100.00;96665.29;109119;1272;22543;-80
2023/01/27 02:30:11;;;;;;;81.10;46.70;;;;;;;-2.76;100.00;96671.03;109135;1272;22739;-81
2023/01/27 02:32:43;;;;;;;83.50;49.20;;;;;;;-2.80;100.00;96674.45;109150;1272;22543;-81
2023/01/27 02:35:21;;;;;;;84.80;49.30;;;;;;;-2.80;100.00;96678.16;109173;1273;22553;-80
2023/01/27 02:37:54;;;;;;;81.60;46.90;;;;;;;-2.79;100.00;96677.17;109104;1267;22733;-81
2023/01/27 02:40:28;;;;;;;86.80;48.00;;;;;;;-2.75;100.00;96683.60;109126;1273;22612;-80
2023/01/27 02:42:59;;;;;;;77.80;44.00;;;;;;;-2.73;100.00;96685.00;109154;1273;22535;-80
2023/01/27 02:45:31;;;;;;;80.90;46.30;;;;;;;-2.71;100.00;96681.86;109029;1269;74923;-81
2023/01/27 02:48:01;;;;;;;78.50;44.70;;;;;;;-2.69;100.00;96683.82;109138;1273;22517;-80
2023/01/27 02:50:32;;;;;;;75.00;44.30;;;;;;;-2.66;100.00;96686.05;109115;1269;22521;-81
2023/01/27 02:53:03;;;;;;;78.60;44.80;;;;;;;-2.63;100.00;96687.05;109142;1269;23188;-80
2023/01/27 02:55:34;;;;;;;75.20;43.30;;;;;;;-2.62;100.00;96688.30;109062;1274;22521;-80
2023/01/27 02:58:05;;;;;;;75.10;41.20;;;;;;;-2.61;100.00;96686.27;109105;1270;26590;-80
2023/01/27 03:00:37;;;;;;;74.00;43.10;;;;;;;-2.62;100.00;96683.14;109139;1250;26563;-80
2023/01/27 03:03:08;;;;;;;76.40;45.50;;;;;;;-2.65;100.00;96679.87;109078;1269;22645;-81
2023/01/27 03:05:39;;;;;;;82.30;46.70;;;;;;;-2.63;100.00;96677.23;109065;1254;22559;-81
2023/01/27 03:08:10;;;;;;;80.50;45.80;;;;;;;-2.59;100.00;96677.60;109089;1265;23873;-80
2023/01/27 03:10:41;;;;;;;80.40;47.30;;;;;;;-2.55;100.00;96681.48;109097;1272;24199;-81
2023/01/27 03:13:14;;;;;;;80.50;46.50;;;;;;;-2.52;100.00;96682.77;109083;1273;22527;-80
2023/01/27 03:18:36;;;;;;;73.50;43.10;;;;;;;-2.50;100.00;96684.01;109140;1269;22627;-81
2023/01/27 03:21:08;;;;;;;75.60;44.30;;;;;;;-2.48;100.00;96683.77;109107;1273;23338;-81
2023/01/27 03:23:39;;;;;;;73.30;44.10;;;;;;;-2.46;100.00;96683.61;109108;1266;22551;-80
2023/01/27 03:26:12;;;;;;;73.80;42.90;;;;;;;-2.44;100.00;96685.65;109055;1274;22517;-81
2023/01/27 03:29:53;;;;;;;71.50;42.40;;;;;;;-2.42;100.00;96683.77;109110;1273;22603;-81
2023/01/27 03:31:34;;;;;;;72.90;41.30;;;;;;;-2.40;100.00;96679.91;109071;1274;22581;-81
2023/01/27 03:34:05;;;;;;;78.30;44.10;;;;;;;-2.38;100.00;96679.41;109184;1273;23583;-80
2023/01/27 03:47:52;;;;;;;77.20;41.40;;;;;;;-2.32;100.00;96666.40;109095;1267;22530;-80
2023/01/27 03:50:36;;;;;;;83.80;44.90;;;;;;;-2.35;100.00;96665.32;109126;1273;22544;-80
2023/01/27 03:53:07;;;;;;;78.80;42.30;;;;;;;-2.34;100.00;96669.23;109144;1273;22545;-80
2023/01/27 03:55:39;;;;;;;80.00;42.90;;;;;;;-2.33;100.00;96678.42;109068;1273;42600;-80
2023/01/27 03:58:20;;;;;;;78.10;41.30;;;;;;;-2.34;100.00;96677.82;109137;1269;22561;-80
2023/01/27 04:00:55;;;;;;;84.70;44.10;;;;;;;-2.40;100.00;96674.40;109085;1266;22518;-80
2023/01/27 04:09:12;;;;;;;84.00;44.50;;;;;;;-2.44;100.00;96667.00;109129;1273;22686;-80
2023/01/27 04:11:55;;;;;;;90.80;48.30;;;;;;;-2.44;100.00;96671.87;109097;1274;22622;-81
2023/01/27 04:14:28;;;;;;;83.00;46.90;;;;;;;-2.44;100.00;96675.98;109121;1273;23457;-80
2023/01/27 04:17:01;;;;;;;84.80;47.80;;;;;;;-2.44;100.00;96673.46;109113;1273;25194;-80
2023/01/27 04:19:33;;;;;;;86.90;47.40;;;;;;;-2.43;100.00;96672.15;109135;1266;22559;-81
2023/01/27 04:22:10;;;;;;;80.60;44.60;;;;;;;-2.42;100.00;96668.13;109117;1272;22568;-81
2023/01/27 04:24:41;;;;;;;84.60;46.00;;;;;;;-2.42;100.00;96667.92;109099;1265;22529;-80
2023/01/27 04:27:17;;;;;;;85.50;44.80;;;;;;;-2.41;100.00;96665.16;109034;1274;28884;-80
2023/01/27 04:29:51;;;;;;;85.80;45.20;;;;;;;-2.43;100.00;96667.67;109096;1273;22574;-80
2023/01/27 04:32:22;;;;;;;84.30;45.90;;;;;;;-2.44;100.00;96664.16;109125;1273;24241;-80
2023/01/27 04:34:53;;;;;;;81.40;47.00;;;;;;;-2.44;100.00;96671.51;109132;1273;22973;-80
2023/01/27 04:37:23;;;;;;;83.60;45.90;;;;;;;-2.43;100.00;96673.07;109098;1274;23810;-80
2023/01/27 04:39:54;;;;;;;83.10;46.30;;;;;;;-2.44;100.00;96672.79;109059;1273;22931;-80
2023/01/27 04:42:25;;;;;;;82.50;44.00;;;;;;;-2.45;100.00;96674.15;109131;1273;22518;-81
2023/01/27 04:44:59;;;;;;;78.40;46.30;;;;;;;-2.45;100.00;96674.86;109075;1267;67630;-81
2023/01/27 04:47:30;;;;;;;77.60;42.50;;;;;;;-2.45;100.00;96673.91;108999;1273;201084;-80
2023/01/27 04:50:02;;;;;;;81.00;46.50;;;;;;;-2.46;100.00;96670.47;109115;1273;22628;-80
2023/01/27 04:52:33;;;;;;;76.00;44.50;;;;;;;-2.44;100.00;96672.11;109105;1266;22584;-80
2023/01/27 04:55:04;;;;;;;75.50;42.50;;;;;;;-2.44;100.00;96667.71;109139;1273;26029;-80
2023/01/27 04:57:38;;;;;;;81.40;46.10;;;;;;;-2.45;100.00;96664.44;109129;1269;25464;-80
2023/01/27 05:00:14;;;;;;;82.30;44.60;;;;;;;-2.46;100.00;96666.76;109085;1274;22562;-80
2023/01/27 05:02:46;;;;;;;77.00;43.70;;;;;;;-2.45;100.00;96671.98;109076;1266;22526;-81
2023/01/27 05:05:17;;;;;;;78.60;42.50;;;;;;;-2.46;100.00;96672.55;109018;1271;55054;-80
2023/01/27 05:07:48;;;;;;;81.10;44.40;;;;;;;-2.46;100.00;96674.46;109123;1266;22561;-80
2023/01/27 05:10:20;;;;;;;79.80;44.80;;;;;;;-2.46;100.00;96671.91;109123;1272;22555;-80
2023/01/27 05:12:51;;;;;;;76.90;42.10;;;;;;;-2.47;100.00;96669.59;109122;1273;22528;-80
2023/01/27 05:15:22;;;;;;;81.80;44.70;;;;;;;-2.47;100.00;96667.03;109065;1273;22567;-80
2023/01/27 05:17:53;;;;;;;78.50;43.10;;;;;;;-2.46;100.00;96669.63;109061;1273;22996;-80
2023/01/27 05:20:24;;;;;;;81.40;46.30;;;;;;;-2.45;100.00;96676.27;109085;1269;23847;-80
2023/01/27 05:23:33;;;;;;;83.50;45.60;;;;;;;-2.45;100.00;96671.91;109116;1273;22517;-80
2023/01/27 05:25:46;;;;;;;80.70;44.80;;;;;;;-2.46;100.00;96676.02;109047;1272;37630;-80
2023/01/27 05:28:17;;;;;;;76.10;42.60;;;;;;;-2.46;100.00;96677.50;109023;1273;26610;-80
2023/01/27 05:30:48;;;;;;;81.90;45.50;;;;;;;-2.47;100.00;96682.65;109127;1273;24191;-80
2023/01/27 05:33:22;;;;;;;80.30;44.70;;;;;;;-2.49;100.00;96683.48;109058;1273;22662;-80
2023/01/27 05:35:52;;;;;;;88.80;48.10;;;;;;;-2.48;100.00;96688.64;109116;1273;22632;-80
2023/01/27 05:38:26;;;;;;;86.30;47.90;;;;;;;-2.48;100.00;96695.30;109056;1267;22545;-80
2023/01/27 05:40:59;;;;;;;80.30;47.40;;;;;;;-2.48;100.00;96691.00;109143;1273;24218;-80
2023/01/27 05:43:34;;;;;;;83.00;48.00;;;;;;;-2.50;100.00;96686.88;109100;1273;24080;-80
2023/01/27 05:46:10;;;;;;;77.40;45.10;;;;;;;-2.52;100.00;96692.82;109116;1273;33854;-80
2023/01/27 05:48:43;;;;;;;76.40;43.90;;;;;;;-2.54;100.00;96691.99;109123;1273;23190;-80
2023/01/27 05:51:15;;;;;;;74.60;43.80;;;;;;;-2.54;100.00;96693.13;109140;1273;24048;-80
2023/01/27 05:53:46;;;;;;;80.00;47.60;;;;;;;-2.54;100.00;96692.30;109124;1273;24160;-80
2023/01/27 05:56:19;;;;;;;72.70;44.80;;;;;;;-2.54;100.00;96692.11;109081;1266;22555;-80
2023/01/27 05:58:50;;;;;;;80.90;46.80;;;;;;;-2.53;100.00;96690.33;109104;1269;22533;-80
2023/01/27 06:01:23;;;;;;;78.50;47.20;;;;;;;-2.53;100.00;96690.48;109125;1273;22531;-80
2023/01/27 06:03:55;;;;;;;79.50;46.60;;;;;;;-2.53;100.00;96690.17;109101;1274;22543;-80
2023/01/27 06:06:27;;;;;;;81.50;45.80;;;;;;;-2.53;100.00;96687.11;109086;1269;22553;-80
2023/01/27 06:09:04;;;;;;;81.60;47.10;;;;;;;-2.51;100.00;96687.23;109133;1266;22532;-80
2023/01/27 06:11:35;;;;;;;79.80;46.70;;;;;;;-2.52;100.00;96687.83;109104;1273;22550;-80
2023/01/27 06:14:06;;;;;;;79.60;46.10;;;;;;;-2.53;100.00;96694.48;109093;1273;22514;-80
2023/01/27 06:16:37;;;;;;;81.60;45.70;;;;;;;-2.55;100.00;96700.89;109102;1273;22520;-80
2023/01/27 06:19:08;;;;;;;79.10;46.80;;;;;;;-2.57;100.00;96698.33;109128;1269;22564;-80
2023/01/27 06:21:39;;;;;;;76.00;43.80;;;;;;;-2.58;100.00;96698.17;109117;1273;22537;-80
2023/01/27 06:24:10;;;;;;;76.50;46.10;;;;;;;-2.59;100.00;96695.41;109049;1273;22959;-80
2023/01/27 06:26:43;;;;;;;78.60;45.80;;;;;;;-2.60;100.00;96689.22;109068;1269;22505;-80
2023/01/27 06:29:14;;;;;;;81.80;46.30;;;;;;;-2.59;100.00;96692.89;109033;1274;22542;-80
2023/01/27 06:31:45;;;;;;;75.30;46.10;;;;;;;-2.59;100.00;96699.40;109146;1273;24210;-79
2023/01/27 06:34:17;;;;;;;68.90;43.50;;;;;;;-2.61;100.00;96701.40;109109;1273;22537;-80
2023/01/27 06:36:48;;;;;;;79.80;45.10;;;;;;;-2.63;100.00;96700.70;109093;1267;25300;-80
2023/01/27 06:39:19;;;;;;;77.50;45.30;;;;;;;-2.63;100.00;96701.30;109089;1273;22783;-79
2023/01/27 06:41:50;;;;;;;65.70;41.60;;;;;;;-2.63;100.00;96702.31;109084;1266;22569;-80
2023/01/27 06:44:21;;;;;;;69.80;43.00;;;;;;;-2.64;100.00;96703.46;109111;1269;22670;-80
2023/01/27 06:46:53;;;;;;;70.50;41.00;;;;;;;-2.66;100.00;96697.66;107611;1272;2015576;-80
2023/01/27 06:49:26;;;;;;;69.50;40.30;;;;;;;-2.65;100.00;96700.86;109138;1272;23989;-80
2023/01/27 06:51:57;;;;;;;70.40;40.90;;;;;;;-2.65;100.00;96702.26;109054;1272;22641;-80
2023/01/27 06:54:29;;;;;;;64.40;39.00;;;;;;;-2.66;100.00;96707.17;109101;1273;25431;-80
2023/01/27 06:57:00;;;;;;;70.20;40.40;;;;;;;-2.68;100.00;96710.66;109072;1273;22838;-80
2023/01/27 06:59:31;;;;;;;65.30;39.80;;;;;;;-2.67;100.00;96711.45;109103;1269;22517;-79
2023/01/27 07:02:02;;;;;;;67.70;40.80;;;;;;;-2.65;100.00;96713.80;109125;1273;22554;-80
2023/01/27 07:04:35;;;;;;;63.70;38.90;;;;;;;-2.64;100.00;96716.63;109108;1269;22566;-80
2023/01/27 07:07:06;;;;;;;70.80;39.20;;;;;;;-2.63;100.00;96715.64;109078;1272;22567;-80
2023/01/27 07:09:38;;;;;;;67.90;39.40;;;;;;;-2.62;100.00;96716.13;109102;1267;25316;-80
2023/01/27 07:12:11;;;;;;;63.50;39.60;;;;;;;-2.61;100.00;96716.04;109073;1270;25446;-80
2023/01/27 07:14:42;;;;;;;62.20;38.20;;;;;;;-2.59;100.00;96718.96;109087;1265;22537;-80
2023/01/27 07:17:14;;;;;;;67.20;39.70;;;;;;;-2.59;100.00;96718.69;109038;1273;54364;-80
2023/01/27 07:19:45;;;;;;;65.70;39.00;;;;;;;-2.57;100.00;96720.36;109088;1265;22563;-80
2023/01/27 07:22:16;;;;;;;62.40;40.50;;;;;;;-2.55;100.00;96720.30;109102;1273;23650;-80
2023/01/27 07:24:47;;;;;;;61.50;37.70;;;;;;;-2.53;100.00;96721.83;109086;1266;22870;-80
2023/01/27 07:27:19;;;;;;;59.60;35.70;;;;;;;-2.53;100.00;96721.93;109078;1273;22518;-80
2023/01/27 07:29:50;;;;;;;65.80;38.40;;;;;;;-2.52;100.00;96723.36;109078;1267;24282;-80
2023/01/27 07:32:24;;;;;;;60.90;37.20;;;;;;;-2.51;100.00;96728.05;109084;1274;26089;-80
2023/01/27 07:34:55;;;;;;;59.10;37.90;;;;;;;-2.48;100.00;96729.29;109123;1273;23195;-80
2023/01/27 07:37:26;;;;;;;60.20;38.50;;;;;;;-2.46;100.00;96731.73;109022;1273;24911;-80
2023/01/27 07:39:58;;;;;;;63.00;39.60;;;;;;;-2.44;100.00;96734.25;109100;1272;22563;-79
2023/01/27 07:42:29;;;;;;;62.60;38.10;;;;;;;-2.41;100.00;96736.33;109100;1273;22663;-79
2023/01/27 07:45:00;;;;;;;59.50;37.30;;;;;;;-2.39;100.00;96741.50;109042;1272;49747;-80
2023/01/27 07:47:31;;;;;;;63.80;40.40;;;;;;;-2.38;100.00;96745.20;109119;1273;22521;-80
2023/01/27 07:50:02;;;;;;;63.50;40.20;;;;;;;-2.35;100.00;96745.84;109113;1272;22517;-79
2023/01/27 07:52:33;;;;;;;70.40;40.30;;;;;;;-2.29;100.00;96745.09;109106;1270;22528;-79
2023/01/27 07:55:04;;;;;;;68.60;42.10;;;;;;;-2.27;100.00;96745.77;109100;1269;22998;-79
2023/01/27 07:57:35;;;;;;;70.40;41.40;;;;;;;-2.25;100.00;96747.48;109151;1267;25357;-79
2023/01/27 08:00:08;;;;;;;66.10;40.40;;;;;;;-2.23;100.00;96748.05;109070;1273;22538;-79
2023/01/27 08:02:40;;;;;;;68.80;43.40;;;;;;;-2.20;100.00;96748.94;109093;1266;22562;-80
2023/01/27 08:05:11;;;;;;;61.20;40.20;;;;;;;-2.18;100.00;96747.62;109051;1273;22522;-80
2023/01/27 08:07:42;;;;;;;67.10;42.80;;;;;;;-2.17;100.00;96748.66;109106;1273;25428;-80
2023/01/27 08:10:13;;;;;;;74.70;45.90;;;;;;;-2.16;100.00;96744.23;109111;1273;23129;-80
2023/01/27 08:12:45;;;;;;;75.00;45.20;;;;;;;-2.14;100.00;96749.66;109150;1272;22518;-80
2023/01/27 08:15:17;;;;;;;68.60;43.40;;;;;;;-2.12;100.00;96749.63;109083;1273;24836;-80
2023/01/27 08:17:54;;;;;;;70.30;43.60;;;;;;;-2.10;100.00;96750.05;109096;1271;23067;-80
2023/01/27 08:20:29;;;;;;;71.60;43.10;;;;;;;-2.09;100.00;96750.42;109065;1273;22554;-80
2023/01/27 08:23:00;;;;;;;71.50;43.40;;;;;;;-2.07;100.00;96750.58;109123;1273;22644;-80
2023/01/27 08:25:31;;;;;;;68.40;41.40;;;;;;;-2.05;100.00;96754.30;109042;1272;26032;-80
2023/01/27 08:28:02;;;;;;;66.20;42.20;;;;;;;-2.06;100.00;96758.45;109114;1271;23867;-80
2023/01/27 08:30:33;;;;;;;68.70;43.80;;;;;;;-2.11;100.00;96762.12;109110;1270;22653;-79
2023/01/27 08:33:04;;;;;;;65.60;40.10;;;;;;;-2.14;100.00;96764.73;109107;1270;22601;-79
2023/01/27 08:35:37;;;;;;;66.40;41.80;;;;;;;-2.12;100.00;96762.10;109059;1273;22648;-79
2023/01/27 08:38:09;;;;;;;70.10;42.00;;;;;;;-2.11;100.00;96763.03;109104;1273;22532;-79
2023/01/27 08:40:41;;;;;;;67.30;42.10;;;;;;;-2.11;100.00;96763.52;109076;1262;22521;-79
2023/01/27 08:43:14;;;;;;;66.10;41.60;;;;;;;-2.09;100.00;96765.69;109121;1273;24934;-79
2023/01/27 08:45:46;;;;;;;65.60;40.20;;;;;;;-2.05;100.00;96765.92;109093;1267;22532;-79
2023/01/27 08:48:21;;;;;;;62.00;40.00;;;;;;;-2.03;100.00;96764.73;109148;1273;23755;-79
2023/01/27 08:50:53;;;;;;;61.10;39.20;;;;;;;-2.01;100.00;96770.52;109069;1256;22542;-79
2023/01/27 08:53:24;;;;;;;63.10;38.90;;;;;;;-1.98;100.00;96773.77;109131;1269;22529;-80
2023/01/27 08:56:01;;;;;;;68.20;42.80;;;;;;;-1.94;100.00;96778.80;109070;1273;26472;-80
2023/01/27 08:58:32;;;;;;;66.70;41.70;;;;;;;-1.89;100.00;96774.37;109102;1273;22521;-80
2023/01/27 09:01:04;;;;;;;70.20;42.90;;;;;;;-1.86;100.00;96773.13;109102;1273;24004;-80
2023/01/27 09:03:36;;;;;;;65.30;41.30;;;;;;;-1.81;100.00;96776.45;109118;1273;22521;-80
2023/01/27 09:06:12;;;;;;;67.20;41.70;;;;;;;-1.78;100.00;96775.61;109026;1273;23208;-80
2023/01/27 09:08:44;;;;;;;65.50;41.70;;;;;;;-1.75;100.00;96779.89;109098;1273;22560;-80
2023/01/27 09:11:17;;;;;;;63.80;39.80;;;;;;;-1.74;100.00;96786.00;109086;1270;22525;-80
2023/01/27 09:13:48;;;;;;;69.60;42.90;;;;;;;-1.71;100.00;96780.52;109078;1273;23986;-80
2023/01/27 09:16:19;;;;;;;68.30;42.50;;;;;;;-1.68;100.00;96776.39;109044;1273;22514;-80
2023/01/27 09:18:50;;;;;;;67.40;40.90;;;;;;;-1.64;100.00;96775.73;109081;1273;24225;-80
2023/01/27 09:21:21;;;;;;;66.30;42.10;;;;;;;-1.63;99.99;96772.24;109082;1266;22517;-79
2023/01/27 09:23:53;;;;;;;65.80;41.50;;;;;;;-1.62;100.00;96772.96;109084;1270;25610;-80
2023/01/27 09:26:24;;;;;;;66.80;41.90;;;;;;;-1.60;100.00;96770.80;109039;1271;22652;-80
2023/01/27 09:28:55;;;;;;;68.30;41.60;;;;;;;-1.57;99.94;96773.55;109107;1273;22511;-80
2023/01/27 09:31:26;;;;;;;62.80;42.10;;;;;;;-1.51;100.00;96769.10;109072;1273;22553;-80
2023/01/27 09:34:00;;;;;;;70.20;44.00;;;;;;;-1.46;99.95;96765.42;109074;1251;22516;-80
2023/01/27 09:36:32;;;;;;;68.60;42.10;;;;;;;-1.40;99.89;96763.11;109100;1270;22520;-80
2023/01/27 09:39:07;;;;;;;61.20;38.80;;;;;;;-1.37;99.80;96754.00;109123;1273;22578;-80
2023/01/27 09:42:07;;;;;;;63.30;42.00;;;;;;;-1.33;99.59;96749.48;109086;1268;22521;-80
2023/01/27 09:45:03;;;;;;;66.90;41.30;;;;;;;-1.33;99.14;96750.48;109079;1273;23855;-79
2023/01/27 09:47:56;;;;;;;59.90;38.40;;;;;;;-1.35;98.90;96753.27;109060;1270;25396;-80
2023/01/27 09:50:40;;;;;;;56.80;35.10;;;;;;;-1.33;98.70;96754.00;109126;1273;25395;-80
2023/01/27 09:53:43;;;;;;;63.50;38.00;;;;;;;-1.33;98.74;96754.33;109081;1273;22521;-80
2023/01/27 09:56:26;;;;;;;57.10;36.10;;;;;;;-1.33;98.51;96747.55;109122;1257;22524;-80
2023/01/27 09:59:15;;;;;;;55.70;35.40;;;;;;;-1.30;98.50;96752.88;109070;1273;22612;-79
2023/01/27 10:02:00;;;;;;;59.30;37.10;;;;;;;-1.30;97.97;96753.76;109075;1273;22543;-79
2023/01/27 10:04:49;;;;;;;53.60;34.60;;;;;;;-1.30;98.25;96755.79;109058;1267;22566;-80
2023/01/27 10:07:39;;;;;;;57.60;35.90;;;;;;;-1.29;98.10;96755.83;109074;1273;22585;-80
2023/01/27 10:10:14;;;;;;;;;;;;;;;-1.31;97.99;96756.64;109152;1264;24513;-80
2023/01/27 10:13:09;;;;;;;51.10;33.90;;;;;;;-1.31;98.12;96755.75;109119;1270;22568;-80
2023/01/27 10:15:57;;;;;;;51.70;34.20;;;;;;;-1.31;97.92;96754.59;109072;1270;27569;-79
2023/01/27 10:18:42;;;;;;;53.30;34.20;;;;;;;-1.36;97.94;96753.36;109105;1273;22622;-80
2023/01/27 10:21:21;;;;;;;52.20;32.60;;;;;;;-1.39;97.83;96746.67;109057;1273;23704;-79
2023/01/27 10:24:04;;;;;;;50.40;32.90;;;;;;;-1.41;97.87;96748.40;109132;1273;25297;-79
2023/01/27 10:26:40;;;;;;;50.50;32.20;;;;;;;-1.38;97.84;96749.48;109082;1267;23979;-79
2023/01/27 10:29:21;;;;;;;50.70;33.40;;;;;;;-1.38;98.02;96751.69;109155;1273;24253;-79
2023/01/27 10:31:56;;;;;;;50.30;32.40;;;;;;;-1.39;97.76;96748.77;109052;1270;26420;-79
2023/01/27 10:34:34;;;;;;;46.40;31.70;;;;;;;-1.41;97.65;96749.95;109076;1274;22528;-79
2023/01/27 10:37:24;;;;;;;43.90;28.50;;;;;;;-1.41;97.68;96750.48;109095;1267;51411;-80
2023/01/27 10:39:55;;;;;;;;;;;;;;;-1.38;97.42;96748.41;109129;1267;22534;-79
2023/01/27 10:42:39;;;;;;;46.80;28.40;;;;;;;-1.40;97.22;96744.32;109115;1270;22544;-79
2023/01/27 10:45:22;;;;;;;42.00;27.40;;;;;;;-1.39;97.20;96746.27;109090;1273;24845;-79
2023/01/27 10:48:07;;;;;;;42.90;28.30;;;;;;;-1.38;97.25;96744.96;109131;1270;22529;-80
2023/01/27 10:50:43;;;;;;;44.30;28.50;;;;;;;-1.38;97.29;96750.67;109108;1272;22605;-79
2023/01/27 10:53:20;;;;;;;47.60;31.00;;;;;;;-1.40;97.45;96751.28;109136;1273;22559;-79
2023/01/27 10:56:01;;;;;;;46.00;28.40;;;;;;;-1.42;97.03;96758.11;109086;1270;22534;-79
2023/01/27 10:58:44;;;;;;;44.50;28.70;;;;;;;-1.47;97.03;96756.19;109073;1273;24295;-79
2023/01/27 11:01:20;;;;;;;45.70;29.80;;;;;;;-1.48;97.03;96758.78;109084;1273;22743;-80
2023/01/27 11:03:59;;;;;;;45.30;29.20;;;;;;;-1.48;96.91;96761.47;109082;1273;22528;-80
2023/01/27 11:06:35;;;;;;;44.50;29.10;;;;;;;-1.49;96.78;96755.86;109107;1269;22514;-80
2023/01/27 11:09:14;;;;;;;44.50;29.20;;;;;;;-1.52;96.95;96762.67;109092;1273;23872;-79
2023/01/27 11:11:48;;;;;;;42.20;27.90;;;;;;;-1.53;96.65;96766.83;109112;1273;22533;-79
2023/01/27 11:14:33;;;;;;;48.00;30.00;;;;;;;-1.54;96.93;96766.22;109120;1270;22527;-79
2023/01/27 11:17:14;;;;;;;48.00;31.20;;;;;;;-1.55;96.64;96765.89;109097;1267;28951;-79
2023/01/27 11:19:57;;;;;;;42.20;27.80;;;;;;;-1.56;96.96;96763.60;109131;1267;22596;-80
2023/01/27 11:22:33;;;;;;;44.30;29.00;;;;;;;-1.57;96.75;96758.13;109072;1267;22541;-79
2023/01/27 11:25:16;;;;;;;50.40;31.20;;;;;;;-1.59;97.02;96757.41;109076;1266;27882;-79
2023/01/27 11:28:03;;;;;;;47.70;31.20;;;;;;;-1.59;96.96;96761.36;109080;1274;23894;-78
2023/01/27 11:30:40;;;;;;;47.60;29.50;;;;;;;-1.61;97.02;96752.80;109075;1250;22523;-79
2023/01/27 11:33:24;;;;;;;46.70;29.00;;;;;;;-1.62;96.80;96751.33;109087;1267;22556;-79
2023/01/27 11:35:55;;;;;;;46.80;29.10;;;;;;;-1.59;96.88;96751.89;109153;1272;22628;-78
2023/01/27 11:38:27;;;;;;;48.80;30.40;;;;;;;-1.58;96.96;96746.65;109115;1267;22540;-79
2023/01/27 11:40:58;;;;;;;47.90;29.40;;;;;;;-1.55;97.30;96741.30;109123;1269;22528;-79
2023/01/27 11:43:30;;;;;;;47.80;30.80;;;;;;;-1.54;97.11;96743.16;109099;1267;26582;-79
2023/01/27 11:46:05;;;;;;;49.90;30.00;;;;;;;-1.56;96.78;96747.93;109124;1272;25463;-79
2023/01/27 11:48:41;;;;;;;47.50;32.20;;;;;;;-1.58;96.65;96741.56;109097;1273;22530;-79
2023/01/27 11:51:19;;;;;;;47.40;30.40;;;;;;;-1.58;96.93;96740.37;109071;1266;22605;-79
2023/01/27 11:53:59;;;;;;;51.40;32.10;;;;;;;-1.59;97.01;96734.13;109135;1273;22551;-79
2023/01/27 11:56:33;;;;;;;49.10;31.20;;;;;;;-1.60;97.01;96734.73;109045;1274;29227;-78
2023/01/27 11:59:09;;;;;;;51.50;32.40;;;;;;;-1.57;97.08;96730.25;109046;1267;25246;-78
2023/01/27 12:01:47;;;;;;;45.20;30.10;;;;;;;-1.55;97.12;96732.38;109107;1273;22652;-78
2023/01/27 12:04:25;;;;;;;47.70;31.90;;;;;;;-1.54;97.08;96732.63;109067;1266;22566;-79
2023/01/27 12:07:06;;;;;;;51.10;31.30;;;;;;;-1.54;96.99;96732.39;109056;1272;23564;-79